Informes de METARS cercanos

 

LEAL - Alicante/El Alte, Spain
Distance from station: SSE 60km
Actualización: 31/01/2023 11:00
Despejado
Despejado
 Viento del ONO
Viento: ONO 17 km/h
Temperatura: 14°C
Rocío: -4°C
Humedad: 29%
Barómetro: 1028 hPa
Resumen: Despejado
Visibility: greater than 10 km
2023/01/31 10:00 LEAL 311000Z 30009KT CAVOK 14/M04 Q1028 NOSIG
LEVC - Valencia (civ/Mi, Spain
Distance from station: NNE 84km
Actualización: 31/01/2023 10:30
Despejado
Despejado
 Viento del O
Viento: O 7 km/h
Temperatura: 8°C
Wind Chill: 7°C
Rocío: -3°C
Humedad: 46%
Barómetro: 1028 hPa
Resumen: Despejado
Visibility: greater than 10 km
2023/01/31 09:30 LEVC 310930Z 26004KT CAVOK 08/M03 Q1028 NOSIG
 
LEAB - Albacete (civ/Mi, Spain
Distance from station: O 95km
Actualización: 31/01/2023 10:30
Despejado
Despejado
 Viento del O
Viento: O 7 km/h
Temperatura: 3°C
Wind Chill: 1°C
Rocío: -2°C
Humedad: 70%
Barómetro: 1029 hPa
Resumen: Despejado
Visibility: greater than 10 km
2023/01/31 09:30 LEAB 310930Z 27004KT 250V310 CAVOK 03/M02 Q1029 NOSIG
LERI - Alcantarilla(Sp-, Spain
Distance from station: SSO 100km
Actualización: 31/01/2023 10:30
Despejado
Despejado
 Viento del OSO
Viento: OSO 6 km/h
Temperatura: 9°C
Rocío: -1°C
Humedad: 50%
Barómetro: 1029 hPa
Resumen: Despejado
Visibility: greater than 10 km
2023/01/31 09:30 LERI 310930Z 24003KT CAVOK 09/M01 Q1029 NOSIG
 
LELC - San Javier(Mil/C, Spain
Distance from station: S 113km
Actualización: 31/01/2023 10:30
Despejado
Despejado
 Viento del O
Viento: O 11 km/h
Temperatura: 12°C
Rocío: 4°C
Humedad: 58%
Barómetro: 1029 hPa
Resumen: Despejado
Visibility: greater than 10 km
2023/01/31 09:30 LELC 310930Z 26006KT CAVOK 12/04 Q1029 NOSIG
LEIB - Ibiza/Es Codola, Spain
Distance from station: E 186km
Actualización: 31/01/2023 10:30
Despejado
Despejado
 Viento del varies
Viento: varies 4 km/h
Temperatura: 13°C
Rocío: 6°C
Humedad: 63%
Barómetro: 1028 hPa
Resumen: Despejado
Visibility: greater than 10 km
2023/01/31 09:30 LEIB 310930Z VRB02KT CAVOK 13/06 Q1028 NOSIG
 
LEAM - Almeria Airport, Spain
Distance from station: SSO 256km
Actualización: 31/01/2023 10:30
Despejado
Despejado
 Viento del NO
Viento: NO 17 km/h
Temperatura: 11°C
Rocío: -2°C
Humedad: 41%
Barómetro: 1029 hPa
Resumen: Despejado
Visibility: greater than 10 km
2023/01/31 09:30 LEAM 310930Z 32009KT CAVOK 11/M02 Q1029
LEMD - Madrid/Barajas, Spain
Distance from station: NO 305km
Actualización: 31/01/2023 10:30
Despejado
Despejado
 Viento del calm
Viento: Calma
Temperatura: -1°C
Rocío: -5°C
Humedad: 75%
Barómetro: 1030 hPa
Resumen: Despejado
Visibility: greater than 10 km
2023/01/31 09:30 LEMD 310930Z 00000KT CAVOK M01/M05 Q1030 NOSIG
 
LEPA - Palma De Mallorc, Spain
Distance from station: ENE 313km
Actualización: 31/01/2023 10:30
Poco nuboso
Poco nuboso
 Viento del varies
Viento: varies 4 km/h
Temperatura: 11°C
Rocío: 7°C
Humedad: 77%
Barómetro: 1027 hPa
Clouds: Poco nuboso
Visibility: 10 km
Cloud details: Poco nuboso 610 m
2023/01/31 09:30 LEPA 310930Z VRB02KT 9999 FEW020 11/07 Q1027 NOSIG